Time;durP1;ratioP1;P1;durP2;ratioP2;P2;SDS_P1;SDS_P2;PMS_P1;PMS_P2;Temp;Humidity;BMP_temperature;BMP_pressure;BME280_temperature;BME280_humidity;BME280_pressure;Samples;Min_cycle;Max_cycle;Signal;HPM_P1;HPM_P2
2022/11/11 00:01:08;;;;;;;14.83;13.70;;;7.80;99.90;;;;;;5073211;28;20498;-69
2022/11/11 00:03:35;;;;;;;15.67;14.37;;;7.80;99.90;;;;;;5072142;28;20482;-68
2022/11/11 00:06:03;;;;;;;15.40;14.20;;;7.80;99.90;;;;;;5077710;28;20839;-68
2022/11/11 00:08:31;;;;;;;13.33;12.53;;;7.80;99.90;;;;;;5076197;28;21247;-70
2022/11/11 00:11:02;;;;;;;14.27;12.77;;;7.70;99.90;;;;;;5071677;28;20479;-67
2022/11/11 00:13:31;;;;;;;14.23;12.93;;;7.70;99.90;;;;;;5075789;28;20454;-70
2022/11/11 00:16:07;;;;;;;15.27;13.77;;;7.60;99.90;;;;;;5071365;28;20462;-67
2022/11/11 00:26:49;;;;;;;12.47;11.77;;;7.50;99.90;;;;;;5070473;28;20457;-67
2022/11/11 00:29:19;;;;;;;13.97;12.87;;;7.40;99.90;;;;;;5071936;28;20462;-68
2022/11/11 00:34:27;;;;;;;14.63;13.30;;;7.10;99.90;;;;;;5075270;28;20969;-68
2022/11/11 00:36:53;;;;;;;13.60;12.70;;;7.00;99.90;;;;;;5074608;28;20536;-67
2022/11/11 00:39:20;;;;;;;14.67;13.60;;;7.00;99.90;;;;;;5072937;28;21212;-68
2022/11/11 00:41:47;;;;;;;14.73;13.47;;;6.90;99.90;;;;;;5071837;28;20270;-68
2022/11/11 00:44:13;;;;;;;15.20;14.00;;;6.90;99.90;;;;;;5071992;28;20465;-68
2022/11/11 00:52:11;;;;;;;14.87;13.77;;;6.50;99.90;;;;;;5074611;28;20963;-68
2022/11/11 00:54:37;;;;;;;14.23;13.30;;;6.40;99.90;;;;;;5078414;28;20903;-69
2022/11/11 00:57:04;;;;;;;14.87;13.83;;;6.30;99.90;;;;;;5072835;28;20463;-69
2022/11/11 00:59:32;;;;;;;15.60;14.17;;;6.20;99.90;;;;;;5069678;28;20555;-69
2022/11/11 01:02:00;;;;;;;15.30;14.30;;;6.10;99.90;;;;;;5073693;28;20497;-69
2022/11/11 01:04:27;;;;;;;15.37;14.07;;;6.20;99.90;;;;;;5068219;28;20488;-68
2022/11/11 01:06:53;;;;;;;15.40;13.60;;;6.10;99.90;;;;;;5072028;28;20459;-68
2022/11/11 01:09:20;;;;;;;15.50;14.30;;;6.10;99.90;;;;;;5076780;28;20467;-68
2022/11/11 01:11:47;;;;;;;16.47;15.17;;;6.00;99.90;;;;;;5077862;28;20475;-68
2022/11/11 01:14:14;;;;;;;17.10;15.67;;;6.10;99.90;;;;;;5073349;28;20467;-68
2022/11/11 01:16:41;;;;;;;14.17;12.97;;;6.10;99.90;;;;;;5069974;28;20832;-67
2022/11/11 01:19:09;;;;;;;16.23;14.73;;;6.10;99.90;;;;;;5076252;28;20942;-70
2022/11/11 01:21:36;;;;;;;20.37;15.57;;;6.10;99.90;;;;;;5075058;28;20489;-68
2022/11/11 01:24:03;;;;;;;16.50;15.17;;;6.10;99.90;;;;;;5071087;28;20460;-70
2022/11/11 01:26:29;;;;;;;16.33;15.00;;;6.10;99.90;;;;;;5072279;28;20472;-70
2022/11/11 01:28:57;;;;;;;16.93;15.07;;;6.20;99.90;;;;;;5069651;28;20459;-70
2022/11/11 01:31:26;;;;;;;15.17;14.10;;;6.20;99.90;;;;;;5074756;28;20466;-69
2022/11/11 01:33:52;;;;;;;16.53;15.13;;;6.20;99.90;;;;;;5075728;28;20805;-67
2022/11/11 01:36:23;;;;;;;16.03;14.53;;;6.30;99.90;;;;;;5074896;28;20463;-67
2022/11/11 01:38:51;;;;;;;16.70;14.93;;;6.30;99.90;;;;;;5071469;28;20836;-69
2022/11/11 01:41:32;;;;;;;22.47;14.90;;;6.40;99.90;;;;;;5073699;28;21012;-68
2022/11/11 01:43:59;;;;;;;16.63;15.07;;;6.40;99.90;;;;;;5075374;28;20466;-70
2022/11/11 01:46:31;;;;;;;16.80;14.40;;;6.30;99.90;;;;;;5068340;28;20841;-67
2022/11/11 01:49:18;;;;;;;15.70;14.37;;;6.30;99.90;;;;;;5069195;28;20459;-68
2022/11/11 01:51:53;;;;;;;18.70;15.47;;;6.30;99.90;;;;;;5071379;28;20494;-69
2022/11/11 01:54:24;;;;;;;18.43;14.53;;;6.30;99.90;;;;;;5073723;28;20474;-67
2022/11/11 01:56:56;;;;;;;22.10;15.60;;;6.30;99.90;;;;;;5069360;28;20975;-68
2022/11/11 01:59:23;;;;;;;17.07;15.30;;;6.30;99.90;;;;;;5071608;28;20481;-67
2022/11/11 02:01:50;;;;;;;15.57;14.20;;;6.30;99.90;;;;;;5073006;28;20532;-68
2022/11/11 02:07:09;;;;;;;14.60;13.70;;;6.30;99.90;;;;;;5073181;28;20460;-68
2022/11/11 02:09:38;;;;;;;17.57;14.60;;;6.30;99.90;;;;;;5076892;28;20466;-70
2022/11/11 02:14:56;;;;;;;19.90;15.40;;;6.30;99.90;;;;;;5074511;28;20815;-67
2022/11/11 02:17:25;;;;;;;15.53;14.47;;;6.30;99.90;;;;;;5071671;28;20466;-70
2022/11/11 02:19:55;;;;;;;15.90;13.90;;;6.30;99.90;;;;;;5068568;28;20929;-70
2022/11/11 02:22:33;;;;;;;16.53;14.90;;;6.10;99.90;;;;;;5073051;28;20476;-70
2022/11/11 02:25:04;;;;;;;15.97;14.57;;;6.00;99.90;;;;;;5068236;28;20462;-67
2022/11/11 02:27:34;;;;;;;15.67;14.47;;;5.90;99.90;;;;;;5073051;28;20450;-69
2022/11/11 02:30:01;;;;;;;17.17;15.37;;;5.90;99.90;;;;;;5068708;28;20808;-67
2022/11/11 02:32:28;;;;;;;21.03;15.93;;;6.00;99.90;;;;;;5071527;28;20460;-67
2022/11/11 02:34:55;;;;;;;19.80;16.47;;;6.10;99.90;;;;;;5070714;28;20475;-69
2022/11/11 02:37:25;;;;;;;16.50;14.80;;;6.10;99.90;;;;;;5071956;28;20790;-70
2022/11/11 02:39:58;;;;;;;16.00;14.40;;;6.10;99.90;;;;;;5071347;28;20586;-67
2022/11/11 02:42:26;;;;;;;16.50;15.13;;;6.00;99.90;;;;;;5068586;28;20505;-68
2022/11/11 02:44:57;;;;;;;16.80;15.27;;;6.00;99.90;;;;;;5071292;28;20869;-67
2022/11/11 02:47:25;;;;;;;17.30;15.60;;;6.00;99.90;;;;;;5075380;28;22526;-70
2022/11/11 02:49:51;;;;;;;17.57;15.80;;;5.90;99.90;;;;;;5063929;28;20799;-69
2022/11/11 02:52:18;;;;;;;17.30;15.30;;;5.90;99.90;;;;;;5072117;28;20872;-68
2022/11/11 02:54:45;;;;;;;17.80;16.10;;;5.90;99.90;;;;;;5074063;28;20469;-69
2022/11/11 02:57:12;;;;;;;16.80;14.77;;;5.80;99.90;;;;;;5076947;28;20500;-68
2022/11/11 02:59:42;;;;;;;15.87;14.53;;;5.80;99.90;;;;;;5073325;28;20583;-67
2022/11/11 03:02:09;;;;;;;17.90;14.97;;;5.80;99.90;;;;;;5078579;28;20483;-68
2022/11/11 03:04:37;;;;;;;16.23;14.93;;;5.70;99.90;;;;;;5073909;28;20532;-68
2022/11/11 03:07:04;;;;;;;23.27;16.50;;;5.70;99.90;;;;;;5073748;28;20458;-67
2022/11/11 03:09:31;;;;;;;17.03;15.33;;;5.60;99.90;;;;;;5076654;28;20828;-67
2022/11/11 03:11:58;;;;;;;15.37;14.20;;;5.50;99.90;;;;;;5079605;28;20469;-68
2022/11/11 03:14:25;;;;;;;18.13;16.33;;;5.40;99.90;;;;;;5074359;28;20521;-67
2022/11/11 03:19:38;;;;;;;17.43;16.03;;;5.10;99.90;;;;;;5077902;28;20499;-68
2022/11/11 03:22:05;;;;;;;16.20;14.90;;;5.00;99.90;;;;;;5073176;28;20493;-69
2022/11/11 03:27:16;;;;;;;17.67;16.30;;;4.90;99.90;;;;;;5079987;28;20446;-68
2022/11/11 03:29:43;;;;;;;18.03;16.60;;;4.90;99.90;;;;;;5076983;28;20464;-68
2022/11/11 03:32:11;;;;;;;17.30;15.87;;;4.80;99.90;;;;;;5080010;28;20469;-66
2022/11/11 03:34:38;;;;;;;21.03;15.93;;;4.70;99.90;;;;;;5072880;28;20484;-69
2022/11/11 03:39:51;;;;;;;19.33;16.30;;;4.60;99.90;;;;;;5072208;28;20945;-70
2022/11/11 03:42:18;;;;;;;17.43;15.90;;;4.60;99.90;;;;;;5074747;28;20583;-68
2022/11/11 03:44:44;;;;;;;18.10;16.23;;;4.60;99.90;;;;;;5075715;28;20516;-68
2022/11/11 03:47:15;;;;;;;17.03;15.70;;;4.50;99.90;;;;;;5080219;28;20466;-67
2022/11/11 03:49:44;;;;;;;17.23;15.83;;;4.60;99.90;;;;;;5077567;28;20460;-69
2022/11/11 03:52:11;;;;;;;17.43;16.00;;;4.60;99.90;;;;;;5072254;28;20471;-67
2022/11/11 03:54:38;;;;;;;16.90;15.90;;;4.60;99.90;;;;;;5074196;28;20478;-68
2022/11/11 03:59:46;;;;;;;17.27;15.77;;;4.70;99.90;;;;;;5066163;28;20462;-67
2022/11/11 04:10:30;;;;;;;18.33;16.73;;;4.70;99.90;;;;;;5077347;28;20548;-67
2022/11/11 04:23:57;;;;;;;17.50;16.00;;;4.90;99.90;;;;;;5080230;28;20538;-68
2022/11/11 04:26:23;;;;;;;19.53;16.57;;;4.80;99.90;;;;;;5078127;28;20472;-66
2022/11/11 04:31:34;;;;;;;18.27;16.43;;;4.80;99.90;;;;;;5074688;28;20221;-69
2022/11/11 04:34:01;;;;;;;24.30;17.30;;;4.80;99.90;;;;;;5076442;28;20504;-68
2022/11/11 04:36:28;;;;;;;18.23;16.60;;;4.80;99.90;;;;;;5072129;28;20532;-69
2022/11/11 04:41:48;;;;;;;18.10;16.70;;;4.90;99.90;;;;;;5048789;28;20470;-68
2022/11/11 04:47:00;;;;;;;18.30;17.03;;;4.80;99.90;;;;;;5072865;28;20456;-69
2022/11/11 04:49:28;;;;;;;18.60;16.90;;;4.70;99.90;;;;;;5072306;28;20483;-69
2022/11/11 04:57:21;;;;;;;19.83;17.93;;;4.60;99.90;;;;;;5079005;28;20557;-67
2022/11/11 04:59:48;;;;;;;19.33;17.47;;;4.60;99.90;;;;;;5076853;28;20474;-67
2022/11/11 05:05:02;;;;;;;19.10;17.40;;;4.60;99.90;;;;;;5069255;28;21053;-67
2022/11/11 05:10:21;;;;;;;18.63;17.00;;;4.90;99.90;;;;;;5046943;28;20454;-69
2022/11/11 05:12:48;;;;;;;19.17;17.20;;;4.90;99.90;;;;;;5065489;28;20576;-68
2022/11/11 05:26:14;;;;;;;18.70;17.07;;;5.10;99.90;;;;;;5070115;28;20480;-69
2022/11/11 05:28:42;;;;;;;20.77;16.70;;;5.20;99.90;;;;;;5070879;28;20454;-69
2022/11/11 05:31:08;;;;;;;26.83;17.43;;;5.30;99.90;;;;;;5073942;28;20581;-68
2022/11/11 05:33:35;;;;;;;24.03;17.40;;;5.30;99.90;;;;;;5070610;28;20490;-69
2022/11/11 05:36:04;;;;;;;18.77;16.93;;;5.30;99.90;;;;;;5070586;28;20471;-66
2022/11/11 05:38:32;;;;;;;18.67;16.90;;;5.30;99.90;;;;;;5077039;28;20493;-69
2022/11/11 05:40:59;;;;;;;22.90;17.90;;;5.30;99.90;;;;;;5063532;28;20465;-69
2022/11/11 05:43:26;;;;;;;20.10;16.50;;;5.30;99.90;;;;;;5066953;28;20493;-69
2022/11/11 05:45:53;;;;;;;18.03;16.57;;;5.30;99.90;;;;;;5066358;28;20841;-66
2022/11/11 05:48:20;;;;;;;17.23;15.80;;;5.30;99.90;;;;;;5063283;28;20465;-67
2022/11/11 05:50:46;;;;;;;18.50;17.03;;;5.20;99.90;;;;;;5072262;28;20837;-67
2022/11/11 05:53:15;;;;;;;18.30;16.87;;;5.10;99.90;;;;;;5073337;28;20469;-69
2022/11/11 05:55:42;;;;;;;19.87;18.10;;;5.00;99.90;;;;;;5070643;28;20450;-69
2022/11/11 05:58:08;;;;;;;18.13;16.60;;;5.00;99.90;;;;;;5069210;28;20478;-69
2022/11/11 06:00:36;;;;;;;19.40;17.40;;;4.90;99.90;;;;;;5067780;28;20454;-69
2022/11/11 06:03:04;;;;;;;20.70;18.20;;;4.80;99.90;;;;;;5073103;28;20487;-69
2022/11/11 06:05:32;;;;;;;19.77;17.97;;;4.80;99.90;;;;;;5073063;28;20490;-68
2022/11/11 06:07:59;;;;;;;20.37;17.60;;;4.80;99.90;;;;;;5072516;28;20455;-69
2022/11/11 06:10:30;;;;;;;21.43;17.23;;;4.70;99.90;;;;;;5072341;28;20974;-69
2022/11/11 06:13:08;;;;;;;19.67;17.77;;;4.60;99.90;;;;;;5069737;28;21075;-68
2022/11/11 06:15:36;;;;;;;19.23;17.30;;;4.60;99.90;;;;;;5075259;28;20460;-67
2022/11/11 06:18:04;;;;;;;21.33;17.67;;;4.50;99.90;;;;;;5074557;28;20934;-68
2022/11/11 06:20:34;;;;;;;20.70;17.27;;;4.50;99.90;;;;;;5071729;28;20451;-67
2022/11/11 06:23:02;;;;;;;19.33;17.37;;;4.60;99.90;;;;;;5067764;28;20491;-69
2022/11/11 06:28:17;;;;;;;26.30;18.20;;;4.80;99.90;;;;;;5067156;28;20970;-68
2022/11/11 06:30:45;;;;;;;19.73;17.67;;;4.70;99.90;;;;;;5074885;28;20464;-68
2022/11/11 06:33:13;;;;;;;18.63;17.00;;;4.70;99.90;;;;;;5073250;28;20464;-68
2022/11/11 06:35:43;;;;;;;18.30;16.77;;;4.70;99.90;;;;;;5070675;28;20466;-67
2022/11/11 06:38:10;;;;;;;18.30;16.60;;;4.80;99.90;;;;;;5070092;28;20873;-69
2022/11/11 06:40:38;;;;;;;19.07;17.20;;;4.90;99.90;;;;;;5066430;28;20876;-68
2022/11/11 06:43:05;;;;;;;20.27;16.60;;;5.00;99.90;;;;;;5067194;28;20492;-68
2022/11/11 06:45:34;;;;;;;20.47;16.03;;;5.00;99.90;;;;;;5068552;28;20470;-70
2022/11/11 06:48:01;;;;;;;18.27;16.60;;;5.10;99.90;;;;;;5075351;28;20522;-70
2022/11/11 06:50:28;;;;;;;17.37;15.80;;;5.10;99.90;;;;;;5072018;28;20480;-71
2022/11/11 06:52:55;;;;;;;24.77;16.63;;;5.30;99.90;;;;;;5072660;28;20481;-69
2022/11/11 06:55:22;;;;;;;17.30;16.00;;;5.30;99.90;;;;;;5070198;28;20886;-69
2022/11/11 06:57:51;;;;;;;24.50;16.40;;;5.40;99.90;;;;;;5065096;28;20973;-69
2022/11/11 07:00:18;;;;;;;18.40;16.50;;;5.40;99.90;;;;;;5069699;28;20496;-69
2022/11/11 07:02:46;;;;;;;19.03;16.93;;;5.40;99.90;;;;;;5067346;28;20825;-70
2022/11/11 07:05:13;;;;;;;20.40;16.73;;;5.40;99.90;;;;;;5069532;28;20507;-70
2022/11/11 07:07:40;;;;;;;18.73;16.93;;;5.50;99.90;;;;;;5071949;28;20460;-69
2022/11/11 07:10:09;;;;;;;18.00;16.30;;;5.50;99.90;;;;;;5067371;28;20469;-70
2022/11/11 07:12:36;;;;;;;20.13;15.87;;;5.60;99.90;;;;;;5075138;28;20960;-68
2022/11/11 07:15:05;;;;;;;22.87;16.33;;;5.60;99.90;;;;;;5075717;28;20478;-70
2022/11/11 07:17:32;;;;;;;19.67;16.00;;;5.70;99.90;;;;;;5069457;28;20756;-69
2022/11/11 07:19:59;;;;;;;18.30;15.87;;;5.70;99.90;;;;;;5071587;28;20460;-69
2022/11/11 07:22:26;;;;;;;18.43;16.50;;;5.80;99.90;;;;;;5072412;28;20842;-69
2022/11/11 07:24:53;;;;;;;26.43;16.23;;;5.90;99.90;;;;;;5067217;28;20492;-71
2022/11/11 07:27:20;;;;;;;18.57;16.00;;;6.00;99.90;;;;;;5070216;28;20506;-69
2022/11/11 07:29:47;;;;;;;19.00;15.67;;;6.10;99.90;;;;;;5067288;28;20462;-71
2022/11/11 07:32:16;;;;;;;17.23;15.50;;;6.20;99.90;;;;;;5075143;28;20544;-70
2022/11/11 07:34:43;;;;;;;17.07;15.27;;;6.30;99.90;;;;;;5070160;28;20461;-69
2022/11/11 07:37:10;;;;;;;18.60;16.47;;;6.40;99.90;;;;;;5071086;28;20494;-70
2022/11/11 07:39:38;;;;;;;18.93;16.67;;;6.50;99.90;;;;;;5071091;28;20465;-69
2022/11/11 07:42:05;;;;;;;19.30;17.47;;;6.60;99.90;;;;;;5071479;28;20505;-69
2022/11/11 07:44:31;;;;;;;25.33;16.70;;;6.70;99.90;;;;;;5073986;28;20486;-67
2022/11/11 07:46:58;;;;;;;18.03;16.43;;;6.80;99.90;;;;;;5075081;28;20451;-67
2022/11/11 07:49:26;;;;;;;25.40;16.23;;;6.90;99.90;;;;;;5069932;28;20471;-69
2022/11/11 07:51:53;;;;;;;22.17;16.90;;;7.00;99.90;;;;;;5070611;28;20637;-70
2022/11/11 07:54:19;;;;;;;24.60;16.77;;;7.10;99.90;;;;;;5073543;28;20465;-67
2022/11/11 07:56:47;;;;;;;20.27;16.93;;;7.20;99.90;;;;;;5077756;28;20988;-69
2022/11/11 07:59:14;;;;;;;22.20;17.00;;;7.30;99.90;;;;;;5068840;28;20699;-68
2022/11/11 08:01:42;;;;;;;20.13;16.43;;;7.40;99.90;;;;;;5076010;28;20459;-70
2022/11/11 08:04:09;;;;;;;29.77;15.57;;;7.50;99.90;;;;;;5073853;28;20493;-68
2022/11/11 08:06:37;;;;;;;19.73;15.33;;;7.50;99.90;;;;;;5073872;28;20469;-67
2022/11/11 08:09:04;;;;;;;17.70;15.90;;;7.60;99.90;;;;;;5072176;28;20484;-68
2022/11/11 08:14:15;;;;;;;30.23;16.30;;;7.80;99.90;;;;;;5080009;28;20502;-68
2022/11/11 08:16:42;;;;;;;30.23;15.80;;;7.80;99.90;;;;;;5073903;28;20523;-69
2022/11/11 08:19:09;;;;;;;17.60;15.77;;;7.90;99.90;;;;;;5078044;28;20490;-71
2022/11/11 08:21:38;;;;;;;24.53;16.47;;;7.90;99.90;;;;;;5071234;28;20577;-70
2022/11/11 08:24:07;;;;;;;23.20;15.53;;;8.00;99.90;;;;;;5072294;28;20506;-70
2022/11/11 08:26:34;;;;;;;20.63;16.83;;;8.00;99.90;;;;;;5068893;28;20467;-69
2022/11/11 08:29:01;;;;;;;20.90;15.40;;;8.00;99.90;;;;;;5067939;28;20467;-70
2022/11/11 08:31:28;;;;;;;20.80;15.60;;;8.10;99.90;;;;;;5072580;28;20486;-69
2022/11/11 08:33:55;;;;;;;23.90;16.60;;;8.10;99.90;;;;;;5073350;28;20863;-70
2022/11/11 08:36:23;;;;;;;24.83;15.70;;;8.20;99.90;;;;;;5069578;28;20461;-67
2022/11/11 08:38:52;;;;;;;34.30;15.97;;;8.30;99.90;;;;;;5072780;28;20473;-69
2022/11/11 08:41:20;;;;;;;16.77;15.00;;;8.40;99.90;;;;;;5069717;28;20878;-69
2022/11/11 08:43:47;;;;;;;18.40;15.80;;;8.50;99.90;;;;;;5073252;28;20575;-68
2022/11/11 08:46:14;;;;;;;22.90;16.30;;;8.60;99.90;;;;;;5070598;28;20879;-69
2022/11/11 08:48:41;;;;;;;27.37;18.33;;;8.70;99.90;;;;;;5071149;28;20458;-70
2022/11/11 08:51:08;;;;;;;18.20;16.30;;;8.70;99.90;;;;;;5075091;28;20455;-70
2022/11/11 08:53:35;;;;;;;21.67;15.70;;;8.90;99.90;;;;;;5073681;28;20462;-68
2022/11/11 08:56:04;;;;;;;17.43;15.70;;;9.00;99.90;;;;;;5069875;28;20463;-68
2022/11/11 08:58:31;;;;;;;33.10;16.33;;;9.00;99.90;;;;;;5077098;28;20481;-69
2022/11/11 09:01:00;;;;;;;18.13;14.57;;;9.20;99.90;;;;;;5071473;28;20803;-68
2022/11/11 09:03:28;;;;;;;28.53;14.67;;;9.20;99.90;;;;;;5074469;28;21012;-71
2022/11/11 09:05:55;;;;;;;16.17;14.60;;;9.30;99.90;;;;;;5071324;28;20484;-70
2022/11/11 09:08:22;;;;;;;25.30;15.60;;;9.40;99.90;;;;;;5069885;28;20467;-68
2022/11/11 09:10:49;;;;;;;15.70;14.13;;;9.50;99.90;;;;;;5074602;28;20717;-68
2022/11/11 09:13:17;;;;;;;25.43;15.33;;;9.60;99.90;;;;;;5066569;28;20470;-70
2022/11/11 09:15:44;;;;;;;22.33;15.47;;;9.70;99.90;;;;;;5066940;28;20470;-70
2022/11/11 09:18:11;;;;;;;17.57;14.93;;;9.80;99.90;;;;;;5071970;28;20463;-70
2022/11/11 09:20:39;;;;;;;24.37;15.00;;;9.90;99.90;;;;;;5072905;28;20840;-70
2022/11/11 09:23:06;;;;;;;18.73;13.80;;;10.10;99.90;;;;;;5072667;28;20996;-68
2022/11/11 09:25:32;;;;;;;21.07;14.10;;;10.20;99.90;;;;;;5073510;28;21075;-69
2022/11/11 09:28:01;;;;;;;16.43;15.00;;;10.30;99.90;;;;;;5073335;28;20512;-68
2022/11/11 09:30:30;;;;;;;17.93;15.07;;;10.40;99.90;;;;;;5072465;28;20458;-68
2022/11/11 09:33:02;;;;;;;23.43;14.90;;;10.60;99.90;;;;;;5068498;28;20466;-70
2022/11/11 09:35:30;;;;;;;17.67;15.70;;;10.70;99.90;;;;;;5070583;28;20463;-68
2022/11/11 09:37:58;;;;;;;34.13;16.10;;;10.80;99.90;;;;;;5069009;28;21131;-69
2022/11/11 09:40:27;;;;;;;19.70;15.60;;;11.00;99.90;;;;;;5076185;28;20481;-70
2022/11/11 09:43:04;;;;;;;18.63;16.33;;;11.20;99.90;;;;;;5071104;28;20466;-69
2022/11/11 09:45:46;;;;;;;23.23;18.50;;;11.20;99.90;;;;;;5071962;28;20563;-67
2022/11/11 09:48:34;;;;;;;20.63;16.23;;;11.30;99.90;;;;;;5070740;28;20554;-68
2022/11/11 09:51:04;;;;;;;21.87;16.63;;;11.40;99.90;;;;;;5070717;28;20877;-68
2022/11/11 09:53:36;;;;;;;18.10;16.43;;;11.70;99.90;;;;;;5071291;28;20475;-68
2022/11/11 09:56:09;;;;;;;17.67;16.20;;;11.80;99.90;;;;;;5067527;28;20536;-69
2022/11/11 09:58:41;;;;;;;18.63;16.70;;;12.00;99.90;;;;;;5067812;28;20557;-68
2022/11/11 10:01:12;;;;;;;28.97;17.17;;;12.10;99.90;;;;;;5071889;28;20473;-68
2022/11/11 10:03:44;;;;;;;17.80;16.20;;;12.20;99.90;;;;;;5072532;28;20984;-69
2022/11/11 10:06:18;;;;;;;17.90;16.43;;;12.30;99.90;;;;;;5071624;28;20462;-69
2022/11/11 10:08:54;;;;;;;18.93;16.00;;;12.50;99.90;;;;;;5068292;28;20458;-68
2022/11/11 10:11:28;;;;;;;17.17;15.87;;;12.60;99.90;;;;;;5070510;28;20981;-68
2022/11/11 10:13:56;;;;;;;17.60;16.23;;;12.80;99.90;;;;;;5076760;28;20941;-68
2022/11/11 10:16:33;;;;;;;18.80;16.30;;;12.80;99.90;;;;;;5073913;28;20465;-68
2022/11/11 10:19:13;;;;;;;17.57;16.20;;;13.00;99.90;;;;;;5074062;28;20455;-68
2022/11/11 10:21:44;;;;;;;18.63;16.83;;;13.10;99.90;;;;;;5065667;28;20936;-70
2022/11/11 10:24:16;;;;;;;23.80;16.60;;;13.30;99.90;;;;;;5065770;28;20483;-71
2022/11/11 10:26:45;;;;;;;17.57;16.07;;;13.40;99.90;;;;;;5068055;28;20511;-68
2022/11/11 10:29:18;;;;;;;18.20;16.20;;;13.50;99.90;;;;;;5070234;28;20870;-68
2022/11/11 10:31:52;;;;;;;18.03;16.53;;;13.60;99.90;;;;;;5069778;28;20473;-68
2022/11/11 10:34:21;;;;;;;17.83;16.50;;;13.50;99.90;;;;;;5067322;28;20473;-68
2022/11/11 10:36:50;;;;;;;17.67;16.10;;;13.90;99.90;;;;;;5069136;28;20847;-68
2022/11/11 10:39:24;;;;;;;17.27;15.73;;;14.20;99.90;;;;;;5072213;28;20467;-68
2022/11/11 10:41:52;;;;;;;18.10;16.33;;;14.30;99.90;;;;;;5074027;28;20458;-68
2022/11/11 10:44:20;;;;;;;17.40;16.00;;;14.50;99.90;;;;;;5068832;28;20471;-69
2022/11/11 10:46:58;;;;;;;18.10;16.57;;;14.70;99.90;;;;;;5066492;28;20459;-68
2022/11/11 10:49:29;;;;;;;19.60;16.13;;;15.10;99.90;;;;;;5073617;28;20474;-67
2022/11/11 10:52:03;;;;;;;23.07;16.10;;;15.30;99.90;;;;;;5065826;28;20715;-68
2022/11/11 10:54:35;;;;;;;19.30;16.47;;;15.40;99.90;;;;;;5069270;28;20491;-67
2022/11/11 10:57:06;;;;;;;18.07;16.17;;;15.30;99.90;;;;;;5074115;28;20473;-68
2022/11/11 10:59:39;;;;;;;18.80;16.90;;;15.40;99.90;;;;;;5064294;28;20466;-68
2022/11/11 11:02:17;;;;;;;18.00;16.30;;;15.40;99.90;;;;;;5067318;28;20509;-68
2022/11/11 11:04:47;;;;;;;17.87;16.00;;;15.50;99.90;;;;;;5065841;28;20573;-67
2022/11/11 11:07:21;;;;;;;19.50;16.27;;;15.80;99.90;;;;;;5064471;28;20490;-68
2022/11/11 11:09:54;;;;;;;17.37;15.77;;;16.10;99.90;;;;;;5069707;28;20507;-67
2022/11/11 11:12:28;;;;;;;20.03;16.50;;;16.30;99.90;;;;;;5067644;28;21280;-70
2022/11/11 11:15:00;;;;;;;19.30;15.70;;;16.20;99.90;;;;;;5074019;28;20458;-68
2022/11/11 11:17:35;;;;;;;21.67;16.63;;;16.30;99.90;;;;;;5074551;28;20466;-68
2022/11/11 11:20:12;;;;;;;16.90;15.80;;;16.50;99.90;;;;;;5072539;28;20470;-68
2022/11/11 11:22:48;;;;;;;17.40;15.80;;;16.60;99.90;;;;;;5077378;28;20454;-68
2022/11/11 11:25:15;;;;;;;18.77;17.10;;;16.60;99.90;;;;;;5074718;28;20486;-70
2022/11/11 11:27:42;;;;;;;18.30;16.50;;;16.70;99.90;;;;;;5072214;28;20691;-70
2022/11/11 11:30:14;;;;;;;25.73;17.27;;;16.60;99.90;;;;;;5074444;28;20462;-69
2022/11/11 11:32:58;;;;;;;18.90;16.70;;;16.40;99.90;;;;;;5075356;28;20549;-68
2022/11/11 11:35:45;;;;;;;27.63;16.23;;;16.50;99.90;;;;;;5071230;28;20581;-68
2022/11/11 11:38:13;;;;;;;30.77;17.33;;;16.80;99.90;;;;;;5067509;28;20470;-68
2022/11/11 11:40:48;;;;;;;25.63;16.00;;;16.70;99.90;;;;;;5073510;28;20497;-67
2022/11/11 11:43:34;;;;;;;22.87;17.50;;;16.60;99.90;;;;;;5068416;28;20800;-68
2022/11/11 11:46:03;;;;;;;23.30;16.60;;;16.80;99.90;;;;;;5074898;28;20509;-67
2022/11/11 11:48:53;;;;;;;19.93;16.50;;;16.80;99.90;;;;;;5074006;28;20469;-70
2022/11/11 11:51:28;;;;;;;24.03;16.43;;;16.70;99.90;;;;;;5066977;28;20466;-68
2022/11/11 11:54:09;;;;;;;18.40;16.43;;;16.90;99.90;;;;;;5074641;28;20823;-68
2022/11/11 11:56:39;;;;;;;18.10;16.43;;;17.30;99.90;;;;;;5071626;28;20455;-68
2022/11/11 11:59:12;;;;;;;30.13;16.37;;;17.40;99.90;;;;;;5073775;28;20520;-68
2022/11/11 12:01:53;;;;;;;26.27;17.63;;;17.30;99.90;;;;;;5069421;28;20550;-71
2022/11/11 12:04:45;;;;;;;18.40;16.43;;;17.40;99.90;;;;;;5072039;28;20934;-68
2022/11/11 12:07:23;;;;;;;27.93;16.77;;;17.60;99.90;;;;;;5076349;28;20463;-68
2022/11/11 12:10:01;;;;;;;17.63;16.13;;;17.80;99.90;;;;;;5071178;28;20463;-68
2022/11/11 12:12:39;;;;;;;25.10;16.40;;;17.90;99.90;;;;;;5071993;28;20655;-70
2022/11/11 12:15:21;;;;;;;19.33;16.50;;;17.80;99.90;;;;;;5073495;28;20462;-68
2022/11/11 12:17:56;;;;;;;21.90;16.93;;;17.90;99.90;;;;;;5073801;28;20824;-68
2022/11/11 12:20:29;;;;;;;19.07;16.50;;;18.40;99.90;;;;;;5074744;28;20632;-67
2022/11/11 12:23:11;;;;;;;21.50;16.63;;;18.50;99.90;;;;;;5070314;28;20462;-67
2022/11/11 12:25:53;;;;;;;20.77;16.53;;;18.50;99.90;;;;;;5068359;28;20897;-67
2022/11/11 12:28:31;;;;;;;22.17;16.83;;;18.70;99.90;;;;;;5065779;28;20898;-68
2022/11/11 12:31:10;;;;;;;17.57;15.97;;;18.70;99.90;;;;;;5069215;28;21010;-68
2022/11/11 12:34:04;;;;;;;17.20;15.87;;;18.60;99.90;;;;;;5074518;28;21399;-69
2022/11/11 12:36:40;;;;;;;17.07;15.77;;;18.80;99.90;;;;;;5071446;28;20466;-68
2022/11/11 12:39:26;;;;;;;17.60;16.60;;;19.00;99.90;;;;;;5069490;28;20455;-68
2022/11/11 12:42:06;;;;;;;17.40;16.07;;;19.10;99.90;;;;;;5071945;28;20490;-70
2022/11/11 12:44:41;;;;;;;16.90;15.80;;;19.10;99.90;;;;;;5068844;28;21049;-70
2022/11/11 12:47:25;;;;;;;17.00;15.70;;;19.30;99.90;;;;;;5067419;28;20835;-69
2022/11/11 12:50:01;;;;;;;17.83;16.13;;;19.10;99.90;;;;;;5068070;28;20466;-68
2022/11/11 12:52:40;;;;;;;17.77;16.00;;;19.00;99.90;;;;;;5069721;28;20462;-68
2022/11/11 12:55:19;;;;;;;18.30;16.40;;;19.30;99.90;;;;;;5071239;28;20470;-68
2022/11/11 12:58:00;;;;;;;20.93;16.30;;;19.50;99.90;;;;;;5069569;28;20528;-68
2022/11/11 13:00:27;;;;;;;20.10;17.10;;;19.40;99.90;;;;;;5071902;28;20465;-68
2022/11/11 13:03:06;;;;;;;18.50;16.70;;;19.00;99.90;;;;;;5065875;28;20455;-69
2022/11/11 13:05:37;;;;;;;16.77;15.63;;;19.00;99.90;;;;;;5075018;28;20501;-73
2022/11/11 13:08:27;;;;;;;17.03;15.77;;;19.20;99.90;;;;;;5062260;28;20466;-69
2022/11/11 13:10:59;;;;;;;17.47;15.93;;;19.10;99.90;;;;;;5071405;28;20463;-68
2022/11/11 13:13:41;;;;;;;17.47;15.40;;;18.60;99.90;;;;;;5070854;28;20465;-69
2022/11/11 13:16:09;;;;;;;16.63;15.53;;;18.70;99.90;;;;;;5075676;28;20474;-71
2022/11/11 13:18:45;;;;;;;19.80;15.83;;;18.80;99.90;;;;;;5071489;28;20668;-69
2022/11/11 13:21:15;;;;;;;17.33;16.13;;;18.60;99.90;;;;;;5073923;28;21078;-68
2022/11/11 13:23:43;;;;;;;17.93;16.30;;;18.50;99.90;;;;;;5068495;28;20470;-68
2022/11/11 13:26:25;;;;;;;18.03;16.13;;;18.50;99.90;;;;;;5070638;28;20497;-68
2022/11/11 13:29:05;;;;;;;16.57;15.50;;;18.80;99.90;;;;;;5067513;28;20969;-69
2022/11/11 13:31:35;;;;;;;19.37;17.17;;;18.90;99.90;;;;;;5074327;28;20546;-69
2022/11/11 13:34:04;;;;;;;17.57;15.90;;;19.00;99.90;;;;;;5070698;28;20469;-69
2022/11/11 13:36:40;;;;;;;18.00;16.30;;;19.10;99.90;;;;;;5070280;28;20458;-69
2022/11/11 13:39:25;;;;;;;17.53;16.17;;;19.20;99.90;;;;;;5071948;28;20465;-69
2022/11/11 13:41:55;;;;;;;18.10;16.60;;;19.20;99.90;;;;;;5071620;28;20458;-69
2022/11/11 13:44:27;;;;;;;17.33;16.33;;;19.30;99.90;;;;;;5072422;28;20458;-69
2022/11/11 13:47:01;;;;;;;17.43;16.00;;;19.50;99.90;;;;;;5068967;28;20458;-69
2022/11/11 13:49:33;;;;;;;17.90;16.13;;;19.50;99.90;;;;;;5071572;28;20724;-71
2022/11/11 13:52:02;;;;;;;19.40;16.73;;;19.20;99.90;;;;;;5068629;28;20474;-69
2022/11/11 13:54:34;;;;;;;18.73;16.80;;;19.50;99.90;;;;;;5068022;28;20770;-70
2022/11/11 13:57:08;;;;;;;17.83;16.37;;;19.20;99.90;;;;;;5071269;28;20480;-68
2022/11/11 13:59:39;;;;;;;16.50;15.60;;;19.20;99.90;;;;;;5068310;28;20467;-69
2022/11/11 14:02:31;;;;;;;17.83;16.60;;;19.30;99.90;;;;;;5071997;28;20462;-70
2022/11/11 14:05:16;;;;;;;18.40;16.50;;;19.60;99.90;;;;;;5056828;28;20477;-70
2022/11/11 14:07:48;;;;;;;17.40;16.10;;;19.20;99.90;;;;;;5067586;28;20466;-69
2022/11/11 14:10:50;;;;;;;17.63;16.43;;;18.50;99.90;;;;;;5068544;28;20977;-69
2022/11/11 14:13:40;;;;;;;17.67;16.37;;;18.30;99.90;;;;;;5075647;28;20450;-70
2022/11/11 14:16:12;;;;;;;17.37;16.10;;;17.90;99.90;;;;;;5079378;28;20956;-70
2022/11/11 14:18:43;;;;;;;22.80;17.00;;;17.90;99.90;;;;;;5069204;28;20470;-68